Skip Navigation Links
NOAA logo - Click to go to the NOAA homepage
NOAA's National Weather Service
Alaska Aviation Weather Unit
  NWS logo - Click to go to the NWS homepage
Left Navbar Graphic     09 AKDT = 17 GMT

   
NOAA is celebrating 200 years of science, service, and stewardship. Visit the NOAA 200th celebration Web site to learn more.
USA.gov is the U.S. Government's official Web portal to all Federal, state and local government Web resources and services.
Facebook
NWS on Facebook

Important Change Regarding the AAWU Web Presence

 

Over the last several months, the AAWU has been working to navigate its webpages to a nationally supported server. Security, as well as other needs, have necessitated the change.  In the process, we have made an effort to enhance the functionality of our website, as well as some of our products. As of June 20, 2017, aawu.arh.noaa.gov will be discontinued. The new AAWU web address is weather.gov/aawu. It is now live and will run in-parallel with the old site until it is discontinued. Please send any feedback or questions regarding the new webpages to nws.ar.aawu.webauthors@noaa.gov.  Thank you for your patience during this time of transition.
AAWU Home :: Display TAF Add Bookmark
METAR PABL 231156Z AUTO 18006KT 10SM -RA BKN039 OVC050 07/04 A2973
 RMK AO2 SLP071 P0000 60000 T00670044 10139 20067 51005=

SPECI PABL 231246Z AUTO VRB06KT 10SM -RA BKN029 OVC035 06/04 A2974 RMK
     AO2 P0001=

METAR PABL 231356Z AUTO 11003KT 9SM -RA OVC029 06/04 A2975 RMK AO2
     SLP076 P0006 T00560044=

METAR PABL 231456Z AUTO 14007KT 10SM -RA OVC025 05/04 A2976 RMK AO2
     SLP080 P0004 60012 T00500039 53009=

METAR PABL 231556Z AUTO 16007KT 10SM -RA SCT027 OVC035 05/04 A2977 RMK
     AO2 SLP083 P0003 T00500044=

SPECI PABL 231628Z AUTO 17007KT 10SM -RA FEW017 BKN024 OVC031 05/04
 A2977 RMK AO2 P0002=

METAR PABL 231656Z AUTO 16007KT 10SM -RA FEW017 BKN024 OVC036 06/04
     A2978 RMK AO2 SLP086 P0003 T00560039=


NOAA's National Weather Service
Alaska Aviation Weather Unit
6930 Sand Lake Road
Anchorage, AK 99502-1845
Disclaimer
Credits
Glossary
Privacy Policy
About Us
Career Opportunities
Contact AAWU Internet Services Site last modified: April, 17th 2012